createdAt,value
2023-01-23T00:00:13.843Z,13.07
2023-01-23T00:02:47.388Z,15.23
2023-01-23T00:05:14.194Z,15.77
2023-01-23T00:07:40.962Z,15.00
2023-01-23T00:10:15.257Z,14.38
2023-01-23T00:12:43.441Z,12.38
2023-01-23T00:15:12.263Z,12.73
2023-01-23T00:17:48.172Z,13.77
2023-01-23T00:20:15.390Z,12.05
2023-01-23T00:22:42.174Z,11.68
2023-01-23T00:25:16.087Z,11.88
2023-01-23T00:27:42.955Z,11.43
2023-01-23T00:30:17.256Z,13.52
2023-01-23T00:32:50.223Z,12.07
2023-01-23T00:35:24.253Z,11.73
2023-01-23T00:37:51.281Z,11.85
2023-01-23T00:40:18.461Z,11.82
2023-01-23T00:42:52.170Z,11.68
2023-01-23T00:45:19.413Z,13.55
2023-01-23T00:47:46.254Z,15.73
2023-01-23T00:50:21.446Z,12.20
2023-01-23T00:52:55.464Z,13.35
2023-01-23T00:55:22.296Z,11.18
2023-01-23T00:57:49.090Z,13.35
2023-01-23T01:00:23.185Z,11.25
2023-01-23T01:02:56.194Z,13.32
2023-01-23T01:05:23.004Z,11.70
2023-01-23T01:07:50.026Z,13.25
2023-01-23T01:10:23.508Z,10.25
2023-01-23T01:12:50.399Z,9.90
2023-01-23T01:15:17.185Z,12.57
2023-01-23T01:17:50.233Z,10.32
2023-01-23T01:20:17.167Z,10.70
2023-01-23T01:22:44.230Z,14.65
2023-01-23T01:25:17.285Z,11.75
2023-01-23T01:27:44.277Z,15.13
2023-01-23T01:30:18.718Z,11.20
2023-01-23T01:32:46.004Z,12.07
2023-01-23T01:35:19.204Z,10.90
2023-01-23T01:37:53.257Z,11.80
2023-01-23T01:40:34.182Z,16.83
2023-01-23T01:43:11.267Z,14.70
2023-01-23T01:46:09.111Z,14.35
2023-01-23T01:48:51.675Z,15.00
2023-01-23T01:54:09.343Z,12.57
2023-01-23T01:56:43.021Z,11.65
2023-01-23T01:59:17.309Z,12.00
2023-01-23T02:01:47.300Z,16.58
2023-01-23T02:04:22.565Z,13.80
2023-01-23T02:06:51.883Z,11.77
2023-01-23T02:09:34.285Z,12.80
2023-01-23T02:12:04.817Z,12.60
2023-01-23T02:14:31.722Z,12.10
2023-01-23T02:17:07.367Z,14.82
2023-01-23T02:19:44.229Z,12.35
2023-01-23T02:22:38.734Z,14.30
2023-01-23T02:25:23.230Z,19.05
2023-01-23T02:27:57.275Z,15.15
2023-01-23T02:30:25.219Z,14.10
2023-01-23T02:32:52.040Z,16.77
2023-01-23T02:35:34.283Z,17.17
2023-01-23T02:38:04.707Z,14.95
2023-01-23T02:40:43.343Z,13.70
2023-01-23T02:43:14.984Z,12.55
2023-01-23T02:45:41.949Z,12.00
2023-01-23T02:48:15.628Z,15.65
2023-01-23T02:50:44.939Z,14.55
2023-01-23T02:53:12.275Z,15.70
2023-01-23T02:55:49.424Z,14.93
2023-01-23T02:58:34.856Z,19.35
2023-01-23T03:01:09.384Z,14.95
2023-01-23T03:03:42.559Z,15.23
2023-01-23T03:06:09.826Z,11.85
2023-01-23T03:08:54.703Z,11.23
2023-01-23T03:11:21.647Z,14.07
2023-01-23T03:13:48.533Z,11.88
2023-01-23T03:16:22.417Z,17.00
2023-01-23T03:18:54.841Z,13.02
2023-01-23T03:21:22.141Z,15.82
2023-01-23T03:23:55.499Z,13.98
2023-01-23T03:26:22.456Z,17.27
2023-01-23T03:29:14.410Z,13.10
2023-01-23T03:31:47.500Z,19.42
2023-01-23T03:34:21.365Z,18.27
2023-01-23T03:36:48.203Z,17.20
2023-01-23T03:39:40.738Z,19.58
2023-01-23T03:42:07.596Z,16.13
2023-01-23T03:44:34.627Z,14.25
2023-01-23T03:47:08.424Z,14.30
2023-01-23T03:49:35.264Z,17.33
2023-01-23T03:52:09.623Z,17.48
2023-01-23T03:54:37.227Z,16.33
2023-01-23T03:57:04.112Z,14.40
2023-01-23T03:59:37.450Z,17.15
2023-01-23T04:02:07.724Z,17.98
2023-01-23T04:04:35.026Z,17.75
2023-01-23T04:07:10.443Z,15.57
2023-01-23T04:09:37.426Z,15.70
2023-01-23T04:12:10.468Z,16.45
2023-01-23T04:14:37.728Z,17.00
2023-01-23T04:17:12.482Z,17.95
2023-01-23T04:19:39.377Z,13.52
2023-01-23T04:22:12.540Z,14.35
2023-01-23T04:24:39.358Z,16.35
2023-01-23T04:27:12.514Z,12.35
2023-01-23T04:29:39.311Z,11.93
2023-01-23T04:32:15.539Z,13.57
2023-01-23T04:34:42.330Z,15.07
2023-01-23T04:37:09.293Z,17.35
2023-01-23T04:39:42.558Z,11.98
2023-01-23T04:42:09.772Z,13.65
2023-01-23T04:44:36.531Z,13.32
2023-01-23T04:47:09.547Z,16.75
2023-01-23T04:49:36.271Z,14.50
2023-01-23T04:52:03.089Z,13.95
2023-01-23T04:54:36.533Z,13.40
2023-01-23T04:57:09.684Z,18.02
2023-01-23T04:59:36.493Z,12.60
2023-01-23T05:02:03.575Z,16.35
2023-01-23T05:04:36.650Z,15.18
2023-01-23T05:07:03.459Z,17.20
2023-01-23T05:09:30.233Z,17.67
2023-01-23T05:12:03.549Z,16.92
2023-01-23T05:14:30.329Z,17.75
2023-01-23T05:16:57.177Z,17.23
2023-01-23T05:19:30.921Z,17.92
2023-01-23T05:21:57.775Z,16.20
2023-01-23T05:24:24.691Z,18.95
2023-01-23T05:26:57.597Z,17.92
2023-01-23T05:29:30.607Z,17.27
2023-01-23T05:31:57.416Z,20.38
2023-01-23T05:34:24.235Z,21.40
2023-01-23T05:36:57.641Z,18.20
2023-01-23T05:39:24.433Z,17.73
2023-01-23T05:41:51.381Z,17.98
2023-01-23T05:44:24.593Z,18.00
2023-01-23T05:46:51.435Z,19.00
2023-01-23T05:49:24.607Z,16.13
2023-01-23T05:51:57.647Z,17.35
2023-01-23T05:54:24.530Z,15.27
2023-01-23T05:56:57.699Z,15.18
2023-01-23T05:59:24.480Z,15.85
2023-01-23T06:01:57.639Z,13.18
2023-01-23T06:04:32.669Z,23.58
2023-01-23T06:06:59.567Z,15.32
2023-01-23T06:09:26.403Z,17.90
2023-01-23T06:11:59.698Z,17.92
2023-01-23T06:14:32.644Z,23.65
2023-01-23T06:16:59.431Z,20.65
2023-01-23T06:19:32.683Z,20.63
2023-01-23T06:21:59.523Z,23.42
2023-01-23T06:24:39.727Z,18.77
2023-01-23T06:27:14.669Z,22.55
2023-01-23T06:29:41.523Z,18.55
2023-01-23T06:32:14.959Z,16.55
2023-01-23T06:34:41.710Z,18.27
2023-01-23T06:37:08.505Z,20.35
2023-01-23T06:39:41.715Z,20.70
2023-01-23T06:42:10.297Z,16.40
2023-01-23T06:44:37.795Z,15.23
2023-01-23T06:47:11.728Z,19.67
2023-01-23T06:49:38.737Z,15.63
2023-01-23T06:52:05.625Z,16.67
2023-01-23T06:54:38.689Z,20.92
2023-01-23T06:57:05.563Z,17.42
2023-01-23T06:59:38.814Z,17.85
2023-01-23T07:02:05.605Z,18.23
2023-01-23T07:04:46.733Z,17.88
2023-01-23T07:07:19.716Z,17.08
2023-01-23T07:09:52.743Z,19.95
2023-01-23T07:12:19.485Z,20.17
2023-01-23T07:14:52.825Z,18.48
2023-01-23T07:17:19.671Z,18.95
2023-01-23T07:19:46.468Z,23.25
2023-01-23T07:22:23.059Z,24.23
2023-01-23T07:24:49.873Z,21.80
2023-01-23T07:27:17.027Z,20.88
2023-01-23T07:29:51.088Z,21.05
2023-01-23T07:32:18.310Z,18.25
2023-01-23T07:34:45.235Z,19.02
2023-01-23T07:37:18.793Z,21.52
2023-01-23T07:39:51.932Z,22.33
2023-01-23T07:42:18.705Z,22.90
2023-01-23T07:44:45.530Z,21.42
2023-01-23T07:47:18.805Z,18.73
2023-01-23T07:49:46.183Z,20.38
2023-01-23T07:52:12.981Z,20.40
2023-01-23T07:54:45.826Z,19.88
2023-01-23T07:57:12.618Z,23.50
2023-01-23T07:59:39.463Z,23.65
2023-01-23T08:02:12.826Z,23.50
2023-01-23T08:04:39.786Z,19.13
2023-01-23T08:07:06.898Z,18.30
2023-01-23T08:09:40.101Z,20.90
2023-01-23T08:12:07.292Z,25.08
2023-01-23T08:14:34.059Z,26.90
2023-01-23T08:17:07.856Z,27.48
2023-01-23T08:19:34.632Z,26.40
2023-01-23T08:22:07.851Z,20.58
2023-01-23T08:24:34.642Z,18.00
2023-01-23T08:27:01.494Z,21.33
2023-01-23T08:29:34.850Z,18.92
2023-01-23T08:32:08.066Z,20.63
2023-01-23T08:34:34.891Z,19.85
2023-01-23T08:37:01.704Z,18.00
2023-01-23T08:39:35.135Z,23.98
2023-01-23T08:42:01.926Z,24.23
2023-01-23T08:44:31.225Z,19.23
2023-01-23T08:47:05.082Z,18.75
2023-01-23T08:49:31.915Z,18.33
2023-01-23T08:51:59.945Z,17.33
2023-01-23T08:54:33.985Z,15.13
2023-01-23T08:57:01.064Z,16.30
2023-01-23T08:59:28.739Z,16.25
2023-01-23T09:02:02.200Z,14.80
2023-01-23T09:04:29.518Z,13.80
2023-01-23T09:06:56.303Z,16.15
2023-01-23T09:09:30.026Z,12.70
2023-01-23T09:11:56.926Z,13.40
2023-01-23T09:14:23.808Z,18.50
2023-01-23T09:16:56.939Z,16.40
2023-01-23T09:19:24.188Z,16.00
2023-01-23T09:21:54.160Z,17.45
2023-01-23T09:24:28.207Z,16.67
2023-01-23T09:26:54.998Z,15.50
2023-01-23T09:29:21.861Z,21.17
2023-01-23T09:31:55.021Z,24.33
2023-01-23T09:34:28.301Z,26.45
2023-01-23T09:36:55.828Z,26.05
2023-01-23T09:39:22.630Z,21.23
2023-01-23T09:41:56.312Z,23.05
2023-01-23T09:44:36.293Z,21.13
2023-01-23T09:47:34.311Z,20.40
2023-01-23T09:50:06.329Z,20.05
2023-01-23T09:52:51.027Z,18.90
2023-01-23T09:55:49.058Z,18.67
2023-01-23T09:58:29.000Z,17.85
2023-01-23T10:00:55.871Z,23.77
2023-01-23T10:03:32.315Z,21.45
2023-01-23T10:06:16.331Z,19.50
2023-01-23T10:09:20.290Z,18.60
2023-01-23T10:12:01.788Z,17.83
2023-01-23T10:14:57.188Z,16.33
2023-01-23T10:17:32.949Z,17.25
2023-01-23T10:20:37.057Z,15.27
2023-01-23T10:23:13.068Z,18.85
2023-01-23T10:25:43.748Z,16.00
2023-01-23T10:28:33.312Z,15.15
2023-01-23T10:31:08.549Z,17.02
2023-01-23T10:33:55.093Z,17.42
2023-01-23T10:36:53.951Z,19.85
2023-01-23T10:39:43.247Z,19.92
2023-01-23T10:42:20.099Z,23.35
2023-01-23T10:44:54.265Z,23.80
2023-01-23T10:47:37.066Z,20.02
2023-01-23T10:50:13.098Z,19.67
2023-01-23T10:52:45.909Z,18.98
2023-01-23T10:55:26.078Z,19.40
2023-01-23T10:58:09.373Z,20.15
2023-01-23T11:00:46.711Z,27.60
2023-01-23T11:03:29.126Z,29.30
2023-01-23T11:06:07.999Z,23.58
2023-01-23T11:08:44.256Z,21.80
2023-01-23T11:11:16.942Z,22.77
2023-01-23T11:13:53.405Z,19.63
2023-01-23T11:16:22.695Z,23.67
2023-01-23T11:19:00.263Z,16.58
2023-01-23T11:21:48.619Z,15.52
2023-01-23T11:24:44.220Z,19.60
2023-01-23T11:27:23.643Z,19.90
2023-01-23T11:30:09.290Z,22.73
2023-01-23T11:33:01.915Z,24.20
2023-01-23T11:36:20.227Z,20.70
2023-01-23T11:38:58.025Z,19.38
2023-01-23T11:41:37.174Z,20.58
2023-01-23T11:44:10.025Z,16.63
2023-01-23T11:47:01.236Z,20.25
2023-01-23T11:50:06.014Z,19.30
2023-01-23T11:52:45.473Z,17.67
2023-01-23T11:55:41.361Z,16.10
2023-01-23T11:58:53.233Z,17.30
2023-01-23T12:01:49.270Z,17.33
2023-01-23T12:04:28.194Z,18.13
2023-01-23T12:07:22.214Z,16.63
2023-01-23T12:10:06.411Z,15.82
2023-01-23T12:12:52.189Z,13.35
2023-01-23T12:15:53.623Z,19.00
2023-01-23T12:18:42.533Z,15.93
2023-01-23T12:21:52.325Z,13.48
2023-01-23T12:24:25.177Z,14.15
2023-01-23T12:27:18.346Z,12.82
2023-01-23T12:30:11.201Z,13.32
2023-01-23T12:33:19.449Z,12.27
2023-01-23T12:36:19.842Z,13.93
2023-01-23T12:39:04.547Z,10.65
2023-01-23T12:41:34.588Z,12.45
2023-01-23T12:44:18.291Z,11.85
2023-01-23T12:47:01.010Z,10.48
2023-01-23T12:49:50.278Z,11.15
2023-01-23T12:52:23.725Z,12.25
2023-01-23T12:55:14.644Z,16.67
2023-01-23T12:57:59.676Z,14.68
2023-01-23T13:00:59.568Z,14.13
2023-01-23T13:03:49.281Z,15.40
2023-01-23T13:06:54.776Z,13.48
2023-01-23T13:09:50.307Z,18.02
2023-01-23T13:12:27.274Z,14.82
2023-01-23T13:15:38.876Z,16.60
2023-01-23T13:18:24.812Z,11.20
2023-01-23T13:21:23.488Z,13.25
2023-01-23T13:24:10.314Z,12.57
2023-01-23T13:26:43.335Z,11.90
2023-01-23T13:29:49.764Z,10.90
2023-01-23T13:32:31.343Z,12.95
2023-01-23T13:34:58.282Z,11.43
2023-01-23T13:37:47.329Z,11.05
2023-01-23T13:40:17.762Z,13.48
2023-01-23T13:42:51.366Z,12.48
2023-01-23T13:45:29.063Z,13.27
2023-01-23T14:21:30.348Z,10.60
2023-01-23T14:24:10.499Z,8.93
2023-01-23T14:26:49.401Z,8.98
2023-01-23T14:29:33.453Z,7.78
2023-01-23T14:32:00.307Z,8.50
2023-01-23T14:34:34.471Z,9.70
2023-01-23T14:37:05.005Z,10.60
2023-01-23T14:39:44.092Z,8.38
2023-01-23T14:42:30.583Z,12.68
2023-01-23T14:45:07.425Z,11.18
2023-01-23T14:47:56.179Z,10.40
2023-01-23T14:50:30.548Z,13.30
2023-01-23T14:53:22.523Z,12.75
2023-01-23T14:55:57.498Z,12.07
2023-01-23T14:58:26.061Z,10.02
2023-01-23T15:01:00.536Z,8.27
2023-01-23T15:03:39.218Z,9.27
2023-01-23T15:06:20.512Z,8.45
2023-01-23T15:08:48.825Z,9.90
2023-01-23T15:11:23.784Z,10.27
2023-01-23T15:13:55.242Z,10.35
2023-01-23T15:16:31.546Z,12.20
2023-01-23T15:19:06.200Z,11.20
2023-01-23T15:21:48.509Z,10.00
2023-01-23T15:24:15.391Z,13.68
2023-01-23T15:26:51.537Z,13.48
2023-01-23T15:29:20.360Z,14.65
2023-01-23T15:31:58.610Z,14.43
2023-01-23T15:34:26.804Z,13.27
2023-01-23T15:36:56.808Z,12.65
2023-01-23T15:39:33.566Z,13.07
2023-01-23T15:42:18.766Z,10.55
2023-01-23T15:44:52.605Z,11.98
2023-01-23T15:47:25.621Z,10.43
2023-01-23T15:49:58.505Z,9.85
2023-01-23T15:52:52.603Z,9.80
2023-01-23T15:55:22.405Z,8.07
2023-01-23T15:57:56.838Z,9.88
2023-01-23T16:00:27.121Z,8.60
2023-01-23T16:02:57.246Z,10.63
2023-01-23T16:05:37.597Z,12.35
2023-01-23T16:08:06.425Z,12.27
2023-01-23T16:10:46.628Z,11.93
2023-01-23T16:13:14.337Z,13.48
2023-01-23T16:15:49.056Z,11.23
2023-01-23T16:18:16.099Z,12.73
2023-01-23T16:20:51.590Z,10.18
2023-01-23T16:23:21.363Z,11.57
2023-01-23T16:25:49.322Z,11.02
2023-01-23T16:28:25.646Z,11.20
2023-01-23T16:30:59.683Z,9.73
2023-01-23T16:33:32.674Z,10.82
2023-01-23T16:35:59.538Z,9.98
2023-01-23T16:38:29.100Z,13.43
2023-01-23T16:41:04.605Z,13.30
2023-01-23T16:43:31.462Z,10.57
2023-01-23T16:46:04.825Z,11.40
2023-01-23T16:48:31.600Z,12.95
2023-01-23T16:51:14.692Z,13.45
2023-01-23T16:53:44.491Z,10.15
2023-01-23T16:56:36.693Z,13.00
2023-01-23T16:59:12.939Z,9.27
2023-01-23T17:01:43.568Z,12.38
2023-01-23T17:04:21.675Z,11.35
2023-01-23T17:06:49.217Z,12.13
2023-01-23T17:09:17.289Z,13.13
2023-01-23T17:12:01.784Z,12.57
2023-01-23T17:14:32.587Z,12.00
2023-01-23T17:17:13.703Z,10.65
2023-01-23T17:19:48.686Z,12.25
2023-01-23T17:22:34.985Z,14.55
2023-01-23T17:25:02.172Z,12.07
2023-01-23T17:27:29.389Z,13.35
2023-01-23T17:30:03.713Z,12.32
2023-01-23T17:32:35.742Z,12.88
2023-01-23T17:35:12.757Z,12.13
2023-01-23T17:37:46.711Z,13.13
2023-01-23T17:40:15.130Z,11.63
2023-01-23T17:42:48.760Z,12.48
2023-01-23T17:45:18.807Z,13.27
2023-01-23T17:47:59.732Z,10.40
2023-01-23T17:50:26.880Z,12.13
2023-01-23T17:53:00.851Z,9.98
2023-01-23T17:55:32.578Z,11.27
2023-01-23T17:58:00.833Z,12.85
2023-01-23T18:00:33.761Z,12.18
2023-01-23T18:03:09.003Z,10.05
2023-01-23T18:05:36.060Z,12.43
2023-01-23T18:08:02.970Z,12.60
2023-01-23T18:10:36.840Z,16.27
2023-01-23T18:13:33.735Z,19.20
2023-01-23T18:16:22.827Z,14.95
2023-01-23T18:19:11.234Z,15.93
2023-01-23T18:21:45.772Z,13.55
2023-01-23T18:24:32.955Z,17.15
2023-01-23T18:27:17.848Z,14.23
2023-01-23T18:30:06.442Z,13.38
2023-01-23T18:32:58.790Z,13.88
2023-01-23T18:35:48.093Z,15.02
2023-01-23T18:38:40.846Z,16.77
2023-01-23T18:41:25.868Z,17.48
2023-01-23T18:44:07.317Z,19.42
2023-01-23T18:46:40.821Z,16.70
2023-01-23T18:49:27.695Z,18.67
2023-01-23T18:52:08.543Z,16.65
2023-01-23T18:55:09.887Z,17.88
2023-01-23T18:58:01.859Z,19.00
2023-01-23T19:00:42.925Z,17.87
2023-01-23T19:03:44.850Z,19.02
2023-01-23T19:06:40.841Z,20.27
2023-01-23T19:09:25.028Z,17.52
2023-01-23T19:12:24.952Z,23.48
2023-01-23T19:15:35.886Z,17.27
2023-01-23T19:18:15.848Z,18.52
2023-01-23T19:20:54.875Z,17.30
2023-01-23T19:23:45.945Z,17.75
2023-01-23T19:26:17.089Z,15.88
2023-01-23T19:28:50.858Z,16.55
2023-01-23T19:31:30.959Z,15.88
2023-01-23T19:33:59.453Z,15.85
2023-01-23T19:36:34.296Z,17.73
2023-01-23T19:39:08.923Z,18.98
2023-01-23T19:41:48.678Z,20.88
2023-01-23T19:44:24.924Z,18.30
2023-01-23T19:46:58.980Z,17.20
2023-01-23T19:49:25.895Z,15.70
2023-01-23T19:51:59.926Z,18.02
2023-01-23T19:54:32.915Z,16.42
2023-01-23T19:56:59.760Z,14.88
2023-01-23T19:59:33.952Z,16.23
2023-01-23T20:02:07.996Z,13.13
2023-01-23T20:04:40.951Z,15.07
2023-01-23T20:07:13.959Z,14.57
2023-01-23T20:09:40.920Z,15.50
2023-01-23T20:12:13.926Z,15.23
2023-01-23T20:14:40.796Z,15.20
2023-01-23T20:17:13.986Z,16.52
2023-01-23T20:19:40.908Z,14.70
2023-01-23T20:22:14.024Z,14.13
2023-01-23T20:24:40.856Z,18.00
2023-01-23T20:27:14.974Z,24.73
2023-01-23T20:29:41.787Z,21.95
2023-01-23T20:32:08.580Z,20.60
2023-01-23T20:34:41.993Z,22.38
2023-01-23T20:37:15.997Z,23.63
2023-01-23T20:39:49.006Z,19.40
2023-01-23T20:42:16.017Z,20.02
2023-01-23T20:44:42.943Z,20.48
2023-01-23T20:47:15.994Z,18.77
2023-01-23T20:49:42.913Z,19.50
2023-01-23T20:52:36.026Z,17.60
2023-01-23T20:55:02.972Z,19.75
2023-01-23T20:57:56.007Z,22.73
2023-01-23T21:00:22.817Z,19.58
2023-01-23T21:02:50.026Z,18.00
2023-01-23T21:05:23.346Z,18.10
2023-01-23T21:08:00.127Z,14.98
2023-01-23T21:10:34.023Z,16.88
2023-01-23T21:13:05.333Z,20.65
2023-01-23T21:15:39.620Z,18.98
2023-01-23T21:18:06.527Z,18.90
2023-01-23T21:20:40.187Z,17.75
2023-01-23T21:23:07.115Z,20.08
2023-01-23T21:25:42.038Z,17.73
2023-01-23T21:28:15.158Z,16.77
2023-01-23T21:30:42.207Z,18.90
2023-01-23T21:33:09.108Z,18.52
2023-01-23T21:35:54.085Z,19.70
2023-01-23T21:38:22.880Z,20.55
2023-01-23T21:40:56.073Z,16.48
2023-01-23T21:43:29.213Z,17.73
2023-01-23T21:45:57.330Z,15.00
2023-01-23T21:48:24.953Z,19.38
2023-01-23T21:50:58.114Z,20.17
2023-01-23T21:53:24.830Z,18.75
2023-01-23T21:55:52.211Z,20.63
2023-01-23T21:58:26.093Z,17.58
2023-01-23T22:01:26.201Z,19.70
2023-01-23T22:04:00.197Z,17.30
2023-01-23T22:06:26.959Z,20.58
2023-01-23T22:08:53.970Z,17.33
2023-01-23T22:11:27.201Z,17.02
2023-01-23T22:13:54.097Z,15.45
2023-01-23T22:16:31.916Z,16.88
2023-01-23T22:19:14.111Z,15.52
2023-01-23T22:21:40.981Z,15.45
2023-01-23T22:24:14.213Z,20.88
2023-01-23T22:26:41.041Z,19.88
2023-01-23T22:29:15.269Z,21.85
2023-01-23T22:31:42.524Z,21.20
2023-01-23T22:34:16.183Z,21.23
2023-01-23T22:36:42.945Z,16.98
2023-01-23T22:39:18.171Z,17.55
2023-01-23T22:41:46.289Z,17.00
2023-01-23T22:44:20.198Z,17.67
2023-01-23T22:46:49.532Z,18.38
2023-01-23T22:49:23.199Z,22.30
2023-01-23T22:51:51.543Z,15.23
2023-01-23T22:54:25.267Z,15.88
2023-01-23T22:56:52.183Z,14.68
2023-01-23T22:59:19.008Z,12.75
2023-01-23T23:01:52.209Z,15.27
2023-01-23T23:04:25.190Z,14.32
2023-01-23T23:06:52.067Z,14.65
2023-01-23T23:09:29.316Z,12.50
2023-01-23T23:12:04.368Z,14.32
2023-01-23T23:14:31.224Z,15.75
2023-01-23T23:17:04.215Z,15.65
2023-01-23T23:19:31.360Z,17.42
2023-01-23T23:21:58.191Z,17.40
2023-01-23T23:24:31.207Z,19.02
2023-01-23T23:26:58.179Z,15.77
2023-01-23T23:29:24.999Z,15.38
2023-01-23T23:31:58.423Z,15.07
2023-01-23T23:34:25.275Z,23.48
2023-01-23T23:36:58.223Z,18.35
2023-01-23T23:39:32.257Z,20.65
2023-01-23T23:41:59.102Z,18.95
2023-01-23T23:44:32.257Z,21.17
2023-01-23T23:47:01.969Z,23.23
2023-01-23T23:49:35.249Z,20.73
2023-01-23T23:52:02.114Z,17.98
2023-01-23T23:54:28.884Z,19.75
2023-01-23T23:57:02.275Z,16.83
2023-01-23T23:59:29.097Z,16.23
